createdAt,value
2022-12-17T00:00:28.802Z,92
2022-12-17T00:01:28.742Z,92
2022-12-17T00:02:28.860Z,92
2022-12-17T00:03:28.982Z,92
2022-12-17T00:04:28.791Z,92
2022-12-17T00:05:28.871Z,92
2022-12-17T00:06:28.799Z,91
2022-12-17T00:07:28.860Z,92
2022-12-17T00:08:28.757Z,92
2022-12-17T00:09:28.773Z,92
2022-12-17T00:10:28.780Z,92
2022-12-17T00:11:28.786Z,92
2022-12-17T00:12:28.819Z,91
2022-12-17T00:13:28.774Z,91
2022-12-17T00:14:28.827Z,91
2022-12-17T00:15:28.925Z,91
2022-12-17T00:16:28.948Z,91
2022-12-17T00:17:28.897Z,91
2022-12-17T00:18:28.831Z,91
2022-12-17T00:19:28.862Z,91
2022-12-17T00:20:28.855Z,91
2022-12-17T00:21:28.813Z,91
2022-12-17T00:22:28.894Z,91
2022-12-17T00:23:28.935Z,91
2022-12-17T00:24:28.878Z,91
2022-12-17T00:25:29.016Z,91
2022-12-17T00:26:28.870Z,91
2022-12-17T00:27:29.060Z,91
2022-12-17T00:28:28.887Z,91
2022-12-17T00:29:28.872Z,91
2022-12-17T00:30:28.931Z,91
2022-12-17T00:31:28.967Z,91
2022-12-17T00:32:28.905Z,91
2022-12-17T00:33:28.982Z,91
2022-12-17T00:34:28.997Z,91
2022-12-17T00:35:29.009Z,91
2022-12-17T00:36:28.946Z,91
2022-12-17T00:37:29.001Z,91
2022-12-17T00:38:28.955Z,91
2022-12-17T00:39:28.923Z,91
2022-12-17T00:40:28.963Z,91
2022-12-17T00:41:29.043Z,91
2022-12-17T00:42:29.010Z,91
2022-12-17T00:43:29.085Z,91
2022-12-17T00:44:28.970Z,91
2022-12-17T00:45:29.081Z,91
2022-12-17T00:46:29.109Z,91
2022-12-17T00:47:29.022Z,91
2022-12-17T00:48:28.987Z,91
2022-12-17T00:49:29.120Z,91
2022-12-17T00:50:29.068Z,92
2022-12-17T00:51:29.020Z,92
2022-12-17T00:52:29.076Z,91
2022-12-17T00:53:29.040Z,91
2022-12-17T00:54:29.036Z,91
2022-12-17T00:55:29.101Z,91
2022-12-17T00:56:29.047Z,91
2022-12-17T00:57:29.136Z,91
2022-12-17T00:58:29.127Z,91
2022-12-17T00:59:29.069Z,91
2022-12-17T01:00:29.170Z,91
2022-12-17T01:01:29.207Z,91
2022-12-17T01:02:29.176Z,91
2022-12-17T01:03:29.059Z,91
2022-12-17T01:04:29.097Z,91
2022-12-17T01:05:29.169Z,91
2022-12-17T01:06:29.087Z,91
2022-12-17T01:07:29.158Z,91
2022-12-17T01:08:29.120Z,91
2022-12-17T01:09:29.201Z,91
2022-12-17T01:10:29.128Z,91
2022-12-17T01:11:29.140Z,91
2022-12-17T01:12:29.143Z,91
2022-12-17T01:13:29.165Z,91
2022-12-17T01:14:29.149Z,91
2022-12-17T01:15:29.194Z,91
2022-12-17T01:16:29.137Z,91
2022-12-17T01:17:29.175Z,91
2022-12-17T01:18:29.110Z,91
2022-12-17T01:19:29.111Z,91
2022-12-17T01:20:29.152Z,91
2022-12-17T01:21:29.140Z,91
2022-12-17T01:22:29.154Z,91
2022-12-17T01:23:29.159Z,91
2022-12-17T01:24:29.183Z,91
2022-12-17T01:25:29.278Z,91
2022-12-17T01:26:29.143Z,91
2022-12-17T01:27:29.156Z,91
2022-12-17T01:28:29.203Z,91
2022-12-17T01:29:29.184Z,91
2022-12-17T01:30:29.231Z,91
2022-12-17T01:31:34.507Z,91
2022-12-17T01:32:29.204Z,91
2022-12-17T01:33:29.195Z,91
2022-12-17T01:34:29.187Z,91
2022-12-17T01:35:29.329Z,91
2022-12-17T01:36:29.191Z,91
2022-12-17T01:37:29.264Z,91
2022-12-17T01:38:29.310Z,91
2022-12-17T01:39:29.227Z,91
2022-12-17T01:40:29.230Z,91
2022-12-17T01:41:29.236Z,91
2022-12-17T01:42:29.211Z,91
2022-12-17T01:43:29.214Z,91
2022-12-17T01:44:29.222Z,91
2022-12-17T01:45:29.349Z,91
2022-12-17T01:46:29.233Z,91
2022-12-17T01:47:29.231Z,91
2022-12-17T01:48:29.264Z,91
2022-12-17T01:49:29.484Z,91
2022-12-17T01:50:29.344Z,91
2022-12-17T01:51:29.318Z,91
2022-12-17T01:52:29.337Z,91
2022-12-17T01:53:29.289Z,91
2022-12-17T01:54:29.306Z,91
2022-12-17T01:55:29.501Z,91
2022-12-17T01:56:29.315Z,91
2022-12-17T01:57:29.319Z,91
2022-12-17T01:58:29.329Z,91
2022-12-17T01:59:29.436Z,91
2022-12-17T02:00:29.418Z,91
2022-12-17T02:01:29.562Z,91
2022-12-17T02:02:29.499Z,91
2022-12-17T02:03:29.406Z,91
2022-12-17T02:04:29.402Z,91
2022-12-17T02:05:29.388Z,91
2022-12-17T02:06:29.400Z,91
2022-12-17T02:07:29.525Z,91
2022-12-17T02:08:29.364Z,91
2022-12-17T02:09:29.431Z,91
2022-12-17T02:10:29.399Z,91
2022-12-17T02:11:29.382Z,91
2022-12-17T02:12:29.389Z,91
2022-12-17T02:13:29.424Z,91
2022-12-17T02:14:29.416Z,91
2022-12-17T02:15:29.420Z,91
2022-12-17T02:16:29.548Z,91
2022-12-17T02:17:29.685Z,91
2022-12-17T02:18:29.478Z,91
2022-12-17T02:19:29.532Z,91
2022-12-17T02:20:29.492Z,91
2022-12-17T02:21:29.605Z,91
2022-12-17T02:22:29.492Z,91
2022-12-17T02:23:29.543Z,91
2022-12-17T02:24:29.454Z,91
2022-12-17T02:25:29.564Z,90
2022-12-17T02:26:29.505Z,90
2022-12-17T02:27:29.713Z,90
2022-12-17T02:28:29.520Z,90
2022-12-17T02:29:29.612Z,90
2022-12-17T02:30:29.516Z,90
2022-12-17T02:31:29.541Z,91
2022-12-17T02:32:29.571Z,91
2022-12-17T02:33:29.665Z,91
2022-12-17T02:34:29.587Z,92
2022-12-17T02:35:29.824Z,92
2022-12-17T02:36:29.594Z,91
2022-12-17T02:37:29.728Z,91
2022-12-17T02:38:29.590Z,91
2022-12-17T02:39:29.692Z,91
2022-12-17T02:40:29.631Z,91
2022-12-17T02:41:29.600Z,91
2022-12-17T02:42:29.622Z,91
2022-12-17T02:43:29.789Z,91
2022-12-17T02:44:29.677Z,91
2022-12-17T02:45:29.900Z,91
2022-12-17T02:46:29.611Z,91
2022-12-17T02:47:29.623Z,91
2022-12-17T02:48:29.682Z,91
2022-12-17T02:49:29.916Z,91
2022-12-17T02:50:29.721Z,91
2022-12-17T02:51:29.847Z,91
2022-12-17T02:52:34.668Z,91
2022-12-17T02:53:29.649Z,91
2022-12-17T02:54:29.692Z,91
2022-12-17T02:55:30.164Z,91
2022-12-17T02:56:29.736Z,91
2022-12-17T02:57:29.880Z,91
2022-12-17T02:58:29.795Z,91
2022-12-17T02:59:30.178Z,91
2022-12-17T03:00:29.757Z,90
2022-12-17T03:01:29.958Z,90
2022-12-17T03:02:30.013Z,90
2022-12-17T03:03:30.248Z,89
2022-12-17T03:04:29.812Z,89
2022-12-17T03:05:44.782Z,89
2022-12-17T03:06:29.877Z,90
2022-12-17T03:07:29.805Z,89
2022-12-17T03:08:29.914Z,90
2022-12-17T03:09:29.900Z,90
2022-12-17T03:10:29.887Z,90
2022-12-17T03:11:29.936Z,90
2022-12-17T03:12:29.942Z,90
2022-12-17T03:13:30.092Z,90
2022-12-17T03:14:29.841Z,91
2022-12-17T03:15:29.892Z,91
2022-12-17T03:16:34.173Z,90
2022-12-17T03:17:29.857Z,90
2022-12-17T03:18:29.901Z,90
2022-12-17T03:19:29.891Z,91
2022-12-17T03:20:29.903Z,90
2022-12-17T03:21:29.858Z,90
2022-12-17T03:22:29.911Z,90
2022-12-17T03:23:29.925Z,90
2022-12-17T03:24:29.928Z,90
2022-12-17T03:25:30.135Z,90
2022-12-17T03:26:30.006Z,90
2022-12-17T03:27:30.059Z,90
2022-12-17T03:28:29.988Z,90
2022-12-17T03:29:30.055Z,90
2022-12-17T03:30:33.296Z,90
2022-12-17T03:31:30.009Z,90
2022-12-17T03:32:30.022Z,90
2022-12-17T03:33:29.974Z,91
2022-12-17T03:34:30.079Z,93
2022-12-17T03:35:30.084Z,93
2022-12-17T03:36:30.036Z,92
2022-12-17T03:37:30.051Z,92
2022-12-17T03:38:30.078Z,92
2022-12-17T03:39:30.071Z,92
2022-12-17T03:40:30.075Z,92
2022-12-17T03:41:30.808Z,91
2022-12-17T03:42:30.022Z,91
2022-12-17T03:43:30.047Z,90
2022-12-17T03:44:30.076Z,90
2022-12-17T03:45:30.085Z,90
2022-12-17T03:46:30.136Z,91
2022-12-17T03:47:30.063Z,91
2022-12-17T03:48:30.065Z,90
2022-12-17T03:49:30.079Z,90
2022-12-17T03:50:30.105Z,90
2022-12-17T03:51:30.066Z,90
2022-12-17T03:52:30.058Z,90
2022-12-17T03:53:30.086Z,90
2022-12-17T03:54:30.081Z,90
2022-12-17T03:55:30.156Z,90
2022-12-17T03:56:30.095Z,90
2022-12-17T03:57:30.153Z,90
2022-12-17T03:58:30.159Z,90
2022-12-17T03:59:30.120Z,90
2022-12-17T04:00:30.153Z,90
2022-12-17T04:01:30.270Z,90
2022-12-17T04:02:30.339Z,89
2022-12-17T04:03:30.287Z,89
2022-12-17T04:04:30.156Z,90
2022-12-17T04:05:30.226Z,90
2022-12-17T04:06:30.242Z,90
2022-12-17T04:07:30.257Z,90
2022-12-17T04:08:30.245Z,90
2022-12-17T04:09:30.248Z,90
2022-12-17T04:10:30.406Z,90
2022-12-17T04:11:30.370Z,90
2022-12-17T04:12:30.344Z,90
2022-12-17T04:13:30.239Z,90
2022-12-17T04:14:30.413Z,90
2022-12-17T04:15:30.908Z,90
2022-12-17T04:16:30.340Z,90
2022-12-17T04:17:30.326Z,90
2022-12-17T04:18:30.543Z,90
2022-12-17T04:19:30.394Z,90
2022-12-17T04:20:30.361Z,90
2022-12-17T04:21:30.305Z,90
2022-12-17T04:22:30.306Z,90
2022-12-17T04:23:30.317Z,90
2022-12-17T04:24:30.430Z,90
2022-12-17T04:25:30.373Z,90
2022-12-17T04:26:30.320Z,90
2022-12-17T04:27:30.398Z,90
2022-12-17T04:28:30.313Z,90
2022-12-17T04:29:30.605Z,90
2022-12-17T04:30:30.454Z,90
2022-12-17T04:31:30.656Z,90
2022-12-17T04:32:34.988Z,90
2022-12-17T04:33:30.380Z,90
2022-12-17T04:34:30.341Z,90
2022-12-17T04:35:30.414Z,90
2022-12-17T04:36:30.357Z,90
2022-12-17T04:37:30.377Z,90
2022-12-17T04:38:30.359Z,90
2022-12-17T04:39:30.362Z,90
2022-12-17T04:40:30.373Z,90
2022-12-17T04:41:30.400Z,90
2022-12-17T04:42:30.433Z,90
2022-12-17T04:43:30.369Z,90
2022-12-17T04:44:30.364Z,90
2022-12-17T04:45:30.422Z,90
2022-12-17T04:46:30.418Z,90
2022-12-17T04:47:30.567Z,90
2022-12-17T04:48:30.372Z,90
2022-12-17T04:49:30.467Z,90
2022-12-17T04:50:30.534Z,90
2022-12-17T04:51:30.429Z,90
2022-12-17T04:52:30.423Z,90
2022-12-17T04:53:30.432Z,90
2022-12-17T04:54:30.421Z,90
2022-12-17T04:55:30.786Z,90
2022-12-17T04:56:30.470Z,90
2022-12-17T04:57:30.605Z,90
2022-12-17T04:58:30.440Z,90
2022-12-17T04:59:30.414Z,90
2022-12-17T05:00:30.613Z,90
2022-12-17T05:01:30.656Z,90
2022-12-17T05:02:30.667Z,90
2022-12-17T05:03:30.493Z,90
2022-12-17T05:04:30.427Z,90
2022-12-17T05:05:30.494Z,90
2022-12-17T05:06:30.563Z,90
2022-12-17T05:07:30.622Z,90
2022-12-17T05:08:30.552Z,90
2022-12-17T05:09:30.430Z,90
2022-12-17T05:10:30.477Z,90
2022-12-17T05:11:30.730Z,90
2022-12-17T05:12:30.652Z,90
2022-12-17T05:13:30.633Z,90
2022-12-17T05:14:30.457Z,90
2022-12-17T05:15:30.570Z,90
2022-12-17T05:16:30.693Z,90
2022-12-17T05:17:30.579Z,90
2022-12-17T05:18:30.660Z,90
2022-12-17T05:19:30.531Z,89
2022-12-17T05:20:30.539Z,89
2022-12-17T05:21:33.431Z,89
2022-12-17T05:22:30.543Z,89
2022-12-17T05:23:30.487Z,89
2022-12-17T05:24:30.631Z,89
2022-12-17T05:25:30.577Z,89
2022-12-17T05:26:30.678Z,89
2022-12-17T05:27:30.864Z,89
2022-12-17T05:28:30.768Z,90
2022-12-17T05:29:30.532Z,90
2022-12-17T05:30:30.536Z,90
2022-12-17T05:31:30.639Z,90
2022-12-17T05:32:30.521Z,90
2022-12-17T05:33:30.510Z,90
2022-12-17T05:34:30.573Z,90
2022-12-17T05:35:30.930Z,90
2022-12-17T05:36:30.562Z,90
2022-12-17T05:37:30.591Z,90
2022-12-17T05:38:30.609Z,90
2022-12-17T05:39:30.565Z,90
2022-12-17T05:40:30.635Z,90
2022-12-17T05:41:30.563Z,90
2022-12-17T05:42:30.680Z,90
2022-12-17T05:43:30.788Z,90
2022-12-17T05:44:30.586Z,90
2022-12-17T05:45:30.597Z,90
2022-12-17T05:46:30.670Z,90
2022-12-17T05:47:30.743Z,90
2022-12-17T05:48:30.678Z,90
2022-12-17T05:49:30.746Z,90
2022-12-17T05:50:30.655Z,90
2022-12-17T05:51:33.495Z,90
2022-12-17T05:52:30.775Z,90
2022-12-17T05:53:30.617Z,90
2022-12-17T05:54:30.664Z,90
2022-12-17T05:55:30.617Z,90
2022-12-17T05:56:30.607Z,90
2022-12-17T05:57:30.660Z,90
2022-12-17T05:58:30.608Z,90
2022-12-17T05:59:30.635Z,90
2022-12-17T06:00:30.667Z,90
2022-12-17T06:01:31.111Z,90
2022-12-17T06:02:30.656Z,90
2022-12-17T06:03:30.750Z,90
2022-12-17T06:04:30.641Z,90
2022-12-17T06:05:30.635Z,90
2022-12-17T06:06:30.628Z,90
2022-12-17T06:07:30.623Z,90
2022-12-17T06:08:30.617Z,90
2022-12-17T06:09:30.669Z,90
2022-12-17T06:10:30.644Z,90
2022-12-17T06:11:30.644Z,90
2022-12-17T06:12:30.644Z,90
2022-12-17T06:13:30.643Z,90
2022-12-17T06:14:30.677Z,90
2022-12-17T06:15:30.679Z,90
2022-12-17T06:16:30.741Z,90
2022-12-17T06:17:30.657Z,90
2022-12-17T06:18:30.657Z,90
2022-12-17T06:19:30.669Z,90
2022-12-17T06:20:30.701Z,90
2022-12-17T06:21:30.670Z,90
2022-12-17T06:22:30.652Z,90
2022-12-17T06:23:30.669Z,90
2022-12-17T06:24:30.657Z,90
2022-12-17T06:25:30.710Z,90
2022-12-17T06:26:30.666Z,90
2022-12-17T06:27:31.040Z,90
2022-12-17T06:28:30.720Z,90
2022-12-17T06:29:30.827Z,90
2022-12-17T06:30:30.720Z,90
2022-12-17T06:31:30.744Z,90
2022-12-17T06:32:30.705Z,90
2022-12-17T06:33:30.713Z,90
2022-12-17T06:34:30.707Z,90
2022-12-17T06:35:30.725Z,89
2022-12-17T06:36:30.727Z,89
2022-12-17T06:37:30.744Z,89
2022-12-17T06:38:30.722Z,89
2022-12-17T06:39:30.726Z,89
2022-12-17T06:40:30.742Z,89
2022-12-17T06:41:30.748Z,90
2022-12-17T06:42:30.733Z,90
2022-12-17T06:43:30.724Z,90
2022-12-17T06:44:30.724Z,90
2022-12-17T06:45:30.751Z,90
2022-12-17T06:46:30.788Z,90
2022-12-17T06:47:31.196Z,90
2022-12-17T06:48:30.781Z,90
2022-12-17T06:49:30.834Z,90
2022-12-17T06:50:30.825Z,89
2022-12-17T06:51:30.795Z,89
2022-12-17T06:52:30.787Z,89
2022-12-17T06:53:30.869Z,89
2022-12-17T06:54:30.792Z,89
2022-12-17T06:55:31.011Z,89
2022-12-17T06:56:30.791Z,90
2022-12-17T06:57:30.880Z,89
2022-12-17T06:58:30.809Z,89
2022-12-17T06:59:30.836Z,89
2022-12-17T07:00:30.904Z,89
2022-12-17T07:01:30.887Z,89
2022-12-17T07:02:30.921Z,89
2022-12-17T07:03:30.854Z,89
2022-12-17T07:04:30.805Z,89
2022-12-17T07:05:30.830Z,89
2022-12-17T07:06:30.794Z,90
2022-12-17T07:07:30.791Z,89
2022-12-17T07:08:30.779Z,89
2022-12-17T07:09:30.806Z,89
2022-12-17T07:10:30.838Z,89
2022-12-17T07:11:30.828Z,89
2022-12-17T07:12:30.804Z,89
2022-12-17T07:13:30.812Z,90
2022-12-17T07:14:30.783Z,89
2022-12-17T07:15:30.841Z,89
2022-12-17T07:16:30.816Z,89
2022-12-17T07:17:30.795Z,89
2022-12-17T07:18:30.800Z,89
2022-12-17T07:19:30.823Z,89
2022-12-17T07:20:30.812Z,89
2022-12-17T07:21:30.814Z,89
2022-12-17T07:22:30.809Z,89
2022-12-17T07:23:30.818Z,89
2022-12-17T07:24:30.806Z,89
2022-12-17T07:25:30.815Z,90
2022-12-17T07:26:30.803Z,90
2022-12-17T07:27:30.801Z,90
2022-12-17T07:28:30.807Z,90
2022-12-17T07:29:30.843Z,90
2022-12-17T07:30:30.870Z,90
2022-12-17T07:31:30.918Z,89
2022-12-17T07:32:30.816Z,89
2022-12-17T07:33:30.854Z,90
2022-12-17T07:34:30.848Z,90
2022-12-17T07:35:30.844Z,90
2022-12-17T07:36:30.855Z,90
2022-12-17T07:37:30.837Z,90
2022-12-17T07:38:30.807Z,90
2022-12-17T07:39:30.844Z,90
2022-12-17T07:40:30.845Z,90
2022-12-17T07:41:30.806Z,90
2022-12-17T07:42:30.804Z,90
2022-12-17T07:43:30.846Z,90
2022-12-17T07:44:30.803Z,90
2022-12-17T07:45:30.917Z,90
2022-12-17T07:46:30.846Z,90
2022-12-17T07:47:30.844Z,90
2022-12-17T07:48:30.848Z,90
2022-12-17T07:49:30.841Z,90
2022-12-17T07:50:30.841Z,91
2022-12-17T07:51:30.848Z,91
2022-12-17T07:52:30.848Z,92
2022-12-17T07:53:30.849Z,92
2022-12-17T07:54:30.879Z,93
2022-12-17T07:55:30.882Z,92
2022-12-17T07:56:30.847Z,92
2022-12-17T07:57:30.847Z,92
2022-12-17T07:58:30.847Z,92
2022-12-17T07:59:30.848Z,91
2022-12-17T08:00:30.892Z,92
2022-12-17T08:01:31.007Z,92
2022-12-17T08:02:31.073Z,91
2022-12-17T08:03:30.974Z,92
2022-12-17T08:04:30.915Z,91
2022-12-17T08:05:30.906Z,90
2022-12-17T08:06:30.863Z,89
2022-12-17T08:07:30.880Z,89
2022-12-17T08:08:30.860Z,89
2022-12-17T08:09:30.854Z,89
2022-12-17T08:10:30.937Z,89
2022-12-17T08:11:30.862Z,89
2022-12-17T08:12:30.934Z,89
2022-12-17T08:13:30.867Z,89
2022-12-17T08:14:30.876Z,89
2022-12-17T08:15:30.951Z,89
2022-12-17T08:16:30.953Z,88
2022-12-17T08:17:30.924Z,89
2022-12-17T08:18:30.876Z,89
2022-12-17T08:19:30.883Z,89
2022-12-17T08:20:30.923Z,88
2022-12-17T08:21:30.880Z,89
2022-12-17T08:22:30.885Z,89
2022-12-17T08:23:30.886Z,89
2022-12-17T08:24:30.943Z,89
2022-12-17T08:25:30.946Z,89
2022-12-17T08:26:30.883Z,88
2022-12-17T08:27:30.952Z,88
2022-12-17T08:28:49.908Z,89
2022-12-17T08:29:30.956Z,89
2022-12-17T08:30:31.017Z,88
2022-12-17T08:31:30.969Z,89
2022-12-17T08:32:30.929Z,90
2022-12-17T08:33:30.980Z,89
2022-12-17T08:34:30.894Z,89
2022-12-17T08:35:30.952Z,89
2022-12-17T08:36:30.948Z,88
2022-12-17T08:37:30.995Z,88
2022-12-17T08:38:30.913Z,88
2022-12-17T08:39:30.961Z,88
2022-12-17T08:40:30.942Z,87
2022-12-17T08:41:31.000Z,87
2022-12-17T08:42:30.926Z,88
2022-12-17T08:43:30.937Z,88
2022-12-17T08:44:30.925Z,88
2022-12-17T08:45:31.001Z,88
2022-12-17T08:46:31.030Z,88
2022-12-17T08:47:30.926Z,88
2022-12-17T08:48:30.967Z,87
2022-12-17T08:49:31.047Z,87
2022-12-17T08:50:30.976Z,87
2022-12-17T08:51:31.073Z,87
2022-12-17T08:52:30.947Z,87
2022-12-17T08:53:34.801Z,87
2022-12-17T08:54:30.982Z,88
2022-12-17T08:55:31.027Z,88
2022-12-17T08:56:30.972Z,87
2022-12-17T08:57:32.098Z,87
2022-12-17T08:58:31.012Z,86
2022-12-17T08:59:31.073Z,86
2022-12-17T09:00:31.013Z,88
2022-12-17T09:01:31.033Z,87
2022-12-17T09:02:31.181Z,85
2022-12-17T09:03:31.143Z,86
2022-12-17T09:04:31.016Z,84
2022-12-17T09:05:31.053Z,84
2022-12-17T09:06:34.645Z,84
2022-12-17T09:07:30.971Z,85
2022-12-17T09:08:31.018Z,84
2022-12-17T09:09:31.024Z,85
2022-12-17T09:10:31.085Z,85
2022-12-17T09:11:30.989Z,84
2022-12-17T09:12:31.005Z,84
2022-12-17T09:13:31.021Z,85
2022-12-17T09:14:31.031Z,84
2022-12-17T09:15:31.141Z,85
2022-12-17T09:16:31.036Z,85
2022-12-17T09:17:31.044Z,85
2022-12-17T09:18:31.006Z,85
2022-12-17T09:19:31.072Z,85
2022-12-17T09:20:31.048Z,86
2022-12-17T09:21:31.069Z,84
2022-12-17T09:22:31.027Z,85
2022-12-17T09:23:31.049Z,85
2022-12-17T09:24:31.047Z,84
2022-12-17T09:25:31.108Z,86
2022-12-17T09:26:31.043Z,86
2022-12-17T09:27:31.015Z,86
2022-12-17T09:28:31.012Z,86
2022-12-17T09:29:31.104Z,85
2022-12-17T09:30:31.149Z,84
2022-12-17T09:31:35.433Z,84
2022-12-17T09:32:31.118Z,84
2022-12-17T09:33:31.025Z,84
2022-12-17T09:34:31.085Z,84
2022-12-17T09:35:31.156Z,84
2022-12-17T09:36:31.123Z,84
2022-12-17T09:37:31.167Z,85
2022-12-17T09:38:31.049Z,83
2022-12-17T09:39:31.048Z,83
2022-12-17T09:40:31.131Z,84
2022-12-17T09:41:31.123Z,84
2022-12-17T09:42:31.147Z,83
2022-12-17T09:43:31.070Z,84
2022-12-17T09:44:31.061Z,84
2022-12-17T09:45:31.109Z,84
2022-12-17T09:46:31.117Z,84
2022-12-17T09:47:31.066Z,84
2022-12-17T09:48:32.658Z,84
2022-12-17T09:49:31.105Z,83
2022-12-17T09:50:31.094Z,84
2022-12-17T09:51:31.083Z,84
2022-12-17T09:52:31.085Z,84
2022-12-17T09:53:31.214Z,84
2022-12-17T09:54:31.072Z,83
2022-12-17T09:55:31.117Z,84
2022-12-17T09:56:31.113Z,84
2022-12-17T09:57:31.178Z,83
2022-12-17T09:58:31.104Z,84
2022-12-17T09:59:31.069Z,84
2022-12-17T10:00:31.111Z,84
2022-12-17T10:01:31.261Z,84
2022-12-17T10:02:31.225Z,84
2022-12-17T10:03:31.243Z,83
2022-12-17T10:04:31.124Z,84
2022-12-17T10:05:31.133Z,84
2022-12-17T10:06:31.083Z,83
2022-12-17T10:07:31.337Z,83
2022-12-17T10:08:31.118Z,83
2022-12-17T10:09:31.163Z,83
2022-12-17T10:10:31.120Z,84
2022-12-17T10:11:34.479Z,84
2022-12-17T10:12:31.226Z,83
2022-12-17T10:13:31.181Z,83
2022-12-17T10:14:31.181Z,83
2022-12-17T10:15:31.286Z,84
2022-12-17T10:16:31.119Z,83
2022-12-17T10:17:31.205Z,82
2022-12-17T10:18:31.144Z,83
2022-12-17T10:19:31.109Z,84
2022-12-17T10:20:31.150Z,84
2022-12-17T10:21:31.155Z,83
2022-12-17T10:22:31.157Z,84
2022-12-17T10:23:31.157Z,83
2022-12-17T10:24:31.201Z,84
2022-12-17T10:25:31.226Z,84
2022-12-17T10:26:31.205Z,84
2022-12-17T10:27:31.167Z,82
2022-12-17T10:28:31.209Z,83
2022-12-17T10:29:31.216Z,84
2022-12-17T10:30:31.169Z,83
2022-12-17T10:31:31.259Z,83
2022-12-17T10:32:31.140Z,84
2022-12-17T10:33:31.216Z,85
2022-12-17T10:34:31.170Z,84
2022-12-17T10:35:31.187Z,83
2022-12-17T10:36:31.181Z,83
2022-12-17T10:37:31.150Z,83
2022-12-17T10:38:31.156Z,84
2022-12-17T10:39:31.237Z,82
2022-12-17T10:40:31.180Z,84
2022-12-17T10:41:31.246Z,83
2022-12-17T10:42:34.440Z,83
2022-12-17T10:43:31.153Z,85
2022-12-17T10:44:31.155Z,86
2022-12-17T10:45:31.302Z,85
2022-12-17T10:46:31.282Z,83
2022-12-17T10:47:31.267Z,84
2022-12-17T10:48:31.237Z,86
2022-12-17T10:49:31.219Z,86
2022-12-17T10:50:31.280Z,85
2022-12-17T10:51:31.181Z,85
2022-12-17T10:52:31.182Z,84
2022-12-17T10:53:31.188Z,85
2022-12-17T10:54:31.237Z,85
2022-12-17T10:55:31.326Z,85
2022-12-17T10:56:31.215Z,84
2022-12-17T10:57:31.257Z,83
2022-12-17T10:58:31.283Z,85
2022-12-17T10:59:31.250Z,85
2022-12-17T11:00:31.248Z,85
2022-12-17T11:01:31.361Z,84
2022-12-17T11:02:31.376Z,83
2022-12-17T11:03:31.255Z,83
2022-12-17T11:04:31.199Z,83
2022-12-17T11:05:31.291Z,83
2022-12-17T11:06:31.198Z,81
2022-12-17T11:07:31.233Z,82
2022-12-17T11:08:31.228Z,82
2022-12-17T11:09:31.242Z,83
2022-12-17T11:10:31.288Z,82
2022-12-17T11:11:31.293Z,82
2022-12-17T11:12:31.452Z,82
2022-12-17T11:13:31.261Z,82
2022-12-17T11:14:31.218Z,81
2022-12-17T11:15:31.256Z,82
2022-12-17T11:16:31.393Z,83
2022-12-17T11:17:31.235Z,82
2022-12-17T11:18:31.223Z,83
2022-12-17T11:19:31.234Z,81
2022-12-17T11:20:31.252Z,81
2022-12-17T11:21:31.224Z,81
2022-12-17T11:22:31.257Z,81
2022-12-17T11:23:31.225Z,82
2022-12-17T11:24:31.228Z,82
2022-12-17T11:25:31.268Z,82
2022-12-17T11:26:31.460Z,82
2022-12-17T11:27:31.231Z,82
2022-12-17T11:28:31.328Z,81
2022-12-17T11:29:31.276Z,81
2022-12-17T11:30:31.356Z,81
2022-12-17T11:31:31.282Z,81
2022-12-17T11:32:31.529Z,81
2022-12-17T11:33:31.282Z,81
2022-12-17T11:34:31.322Z,81
2022-12-17T11:35:31.286Z,80
2022-12-17T11:36:36.889Z,80
2022-12-17T11:37:31.256Z,81
2022-12-17T11:38:31.254Z,83
2022-12-17T11:39:31.248Z,81
2022-12-17T11:40:31.289Z,81
2022-12-17T11:41:31.386Z,81
2022-12-17T11:42:31.254Z,81
2022-12-17T11:43:31.351Z,81
2022-12-17T11:44:31.283Z,81
2022-12-17T11:45:31.423Z,82
2022-12-17T11:46:31.491Z,81
2022-12-17T11:47:31.258Z,80
2022-12-17T11:48:31.301Z,81
2022-12-17T11:49:31.319Z,82
2022-12-17T11:50:31.364Z,82
2022-12-17T11:51:31.302Z,81
2022-12-17T11:52:31.298Z,81
2022-12-17T11:53:31.363Z,81
2022-12-17T11:54:31.323Z,82
2022-12-17T11:55:31.322Z,82
2022-12-17T11:56:31.364Z,82
2022-12-17T11:57:31.422Z,82
2022-12-17T11:58:31.288Z,82
2022-12-17T11:59:31.300Z,82
2022-12-17T12:00:31.321Z,82
2022-12-17T12:01:31.339Z,81
2022-12-17T12:02:31.435Z,80
2022-12-17T12:03:31.550Z,81
2022-12-17T12:04:31.360Z,80
2022-12-17T12:05:31.552Z,80
2022-12-17T12:06:31.327Z,79
2022-12-17T12:07:31.435Z,80
2022-12-17T12:08:31.338Z,79
2022-12-17T12:09:31.337Z,80
2022-12-17T12:10:31.458Z,80
2022-12-17T12:11:31.983Z,79
2022-12-17T12:12:31.347Z,79
2022-12-17T12:13:31.353Z,78
2022-12-17T12:14:31.351Z,79
2022-12-17T12:15:31.402Z,79
2022-12-17T12:16:31.388Z,79
2022-12-17T12:17:31.392Z,79
2022-12-17T12:18:31.357Z,78
2022-12-17T12:19:31.361Z,77
2022-12-17T12:20:31.453Z,78
2022-12-17T12:21:31.354Z,78
2022-12-17T12:22:31.355Z,78
2022-12-17T12:23:31.356Z,78
2022-12-17T12:24:31.378Z,78
2022-12-17T12:25:31.401Z,78
2022-12-17T12:26:31.366Z,78
2022-12-17T12:27:31.375Z,77
2022-12-17T12:28:31.442Z,77
2022-12-17T12:29:31.411Z,77
2022-12-17T12:30:31.463Z,78
2022-12-17T12:31:31.406Z,77
2022-12-17T12:32:31.446Z,77
2022-12-17T12:33:31.400Z,77
2022-12-17T12:34:31.395Z,77
2022-12-17T12:35:31.491Z,77
2022-12-17T12:36:31.464Z,78
2022-12-17T12:37:31.463Z,79
2022-12-17T12:38:31.390Z,77
2022-12-17T12:39:31.461Z,77
2022-12-17T12:40:31.491Z,76
2022-12-17T12:41:31.466Z,76
2022-12-17T12:42:31.474Z,75
2022-12-17T12:43:31.499Z,76
2022-12-17T12:44:31.406Z,76
2022-12-17T12:45:31.575Z,75
2022-12-17T12:46:31.404Z,75
2022-12-17T12:47:31.419Z,75
2022-12-17T12:48:31.420Z,75
2022-12-17T12:49:31.486Z,74
2022-12-17T12:50:31.453Z,74
2022-12-17T12:51:34.054Z,75
2022-12-17T12:52:31.476Z,74
2022-12-17T12:53:31.517Z,74
2022-12-17T12:54:31.478Z,75
2022-12-17T12:55:31.521Z,74
2022-12-17T12:56:31.433Z,74
2022-12-17T12:57:33.976Z,74
2022-12-17T12:58:31.433Z,73
2022-12-17T12:59:31.477Z,74
2022-12-17T13:00:31.630Z,75
2022-12-17T13:01:31.635Z,74
2022-12-17T13:02:31.555Z,74
2022-12-17T13:03:35.017Z,73
2022-12-17T13:04:31.528Z,73
2022-12-17T13:05:31.519Z,74
2022-12-17T13:06:31.473Z,74
2022-12-17T13:07:31.479Z,74
2022-12-17T13:08:31.556Z,74
2022-12-17T13:09:34.719Z,73
2022-12-17T13:10:31.552Z,73
2022-12-17T13:11:31.739Z,73
2022-12-17T13:12:31.491Z,75
2022-12-17T13:13:31.522Z,73
2022-12-17T13:14:31.472Z,73
2022-12-17T13:15:33.190Z,74
2022-12-17T13:16:31.499Z,73
2022-12-17T13:17:31.512Z,74
2022-12-17T13:18:31.502Z,73
2022-12-17T13:19:31.499Z,73
2022-12-17T13:20:31.528Z,73
2022-12-17T13:21:31.595Z,71
2022-12-17T13:22:31.537Z,72
2022-12-17T13:23:31.558Z,73
2022-12-17T13:24:31.509Z,72
2022-12-17T13:25:31.555Z,73
2022-12-17T13:26:31.510Z,73
2022-12-17T13:27:31.565Z,73
2022-12-17T13:28:31.504Z,72
2022-12-17T13:29:31.552Z,72
2022-12-17T13:30:31.534Z,72
2022-12-17T13:31:31.567Z,72
2022-12-17T13:32:31.517Z,72
2022-12-17T13:33:31.553Z,72
2022-12-17T13:34:31.572Z,73
2022-12-17T13:35:31.774Z,73
2022-12-17T13:36:31.601Z,71
2022-12-17T13:37:31.711Z,72
2022-12-17T13:38:31.596Z,73
2022-12-17T13:39:31.661Z,72
2022-12-17T13:40:31.647Z,73
2022-12-17T13:41:31.640Z,73
2022-12-17T13:42:31.658Z,73
2022-12-17T13:43:31.674Z,72
2022-12-17T13:44:31.606Z,72
2022-12-17T13:45:31.684Z,72
2022-12-17T13:46:31.652Z,72
2022-12-17T13:47:31.675Z,72
2022-12-17T13:48:31.574Z,72
2022-12-17T13:49:31.620Z,72
2022-12-17T13:50:34.590Z,73
2022-12-17T13:51:31.710Z,71
2022-12-17T13:52:31.605Z,71
2022-12-17T13:53:31.698Z,71
2022-12-17T13:54:31.607Z,71
2022-12-17T13:55:31.627Z,72
2022-12-17T13:56:31.636Z,72
2022-12-17T13:57:31.722Z,72
2022-12-17T13:58:31.595Z,72
2022-12-17T13:59:31.590Z,72
2022-12-17T14:00:31.622Z,73
2022-12-17T14:01:31.735Z,72
2022-12-17T14:02:31.691Z,72
2022-12-17T14:03:56.838Z,74
2022-12-17T14:04:31.610Z,73
2022-12-17T14:05:31.602Z,72
2022-12-17T14:06:31.685Z,72
2022-12-17T14:07:31.617Z,72
2022-12-17T14:08:31.643Z,72
2022-12-17T14:09:31.633Z,72
2022-12-17T14:10:31.654Z,72
2022-12-17T14:11:31.633Z,72
2022-12-17T14:12:31.666Z,72
2022-12-17T14:13:31.670Z,73
2022-12-17T14:14:31.647Z,73
2022-12-17T14:15:31.758Z,74